Castelandia, Brazil
Current Conditions -  °F | °C
As of 12:00 AM on Tuesday 23 Dec 2014 (Local Time) from SBGO Reporting Station
Thunderstorm Thunderstorm  
Wind Chill: 72°   Ceiling: Unl
Heat Index: 72°   Visibility: 6mi
Dew Point: 68°   Wind: 2mph
Humidity: 88%   Direction: 230°SW
Pressure: 30.06"   Gusts: NA
Location:  18.09°S, 50.22°W
Report Text: SBGO 230200Z 23002KT 9999 -RA VCTS FEW013 SCT035 FEW040CB OVC100 22/20 Q1018
Loading
Personal Weather Stations






























Interactive Weather Map New forecast layout! Learn more

10-Day Weather Forecast

Advertisements
Track Severe Weather on mobile